createdAt,value
2022-08-11T00:02:29.469Z,96751.16
2022-08-11T00:04:58.659Z,96753.22
2022-08-11T00:07:27.946Z,96757.56
2022-08-11T00:09:57.127Z,96754.47
2022-08-11T00:12:25.748Z,96758.59
2022-08-11T00:14:59.876Z,96750.34
2022-08-11T00:17:30.815Z,96749.72
2022-08-11T00:20:14.883Z,96752.41
2022-08-11T00:22:46.413Z,96753.44
2022-08-11T00:25:18.182Z,96758.59
2022-08-11T00:27:48.474Z,96752.00
2022-08-11T00:30:18.399Z,96756.72
2022-08-11T00:32:55.209Z,96755.06
2022-08-11T00:35:52.127Z,96754.84
2022-08-11T00:38:16.642Z,96758.41
2022-08-11T00:40:48.405Z,96746.44
2022-08-11T00:43:22.195Z,96750.13
2022-08-11T00:46:12.210Z,96749.94
2022-08-11T00:48:46.775Z,96756.31
2022-08-11T00:51:24.672Z,96750.53
2022-08-11T00:54:01.921Z,96754.47
2022-08-11T00:56:58.194Z,96750.94
2022-08-11T00:59:58.831Z,96745.16
2022-08-11T01:02:49.526Z,96747.03
2022-08-11T01:05:51.593Z,96739.19
2022-08-11T01:08:48.140Z,96740.03
2022-08-11T01:11:27.077Z,96737.50
2022-08-11T01:14:37.762Z,96729.50
2022-08-11T01:17:14.284Z,96731.97
2022-08-11T01:20:45.417Z,96730.69
2022-08-11T01:23:12.686Z,96735.84
2022-08-11T01:26:28.234Z,96735.44
2022-08-11T01:29:06.474Z,96737.50
2022-08-11T01:32:06.439Z,96732.34
2022-08-11T01:35:19.180Z,96738.09
2022-08-11T01:38:22.200Z,96737.06
2022-08-11T01:41:48.772Z,96739.94
2022-08-11T01:44:41.605Z,96735.00
2022-08-11T01:47:52.601Z,96728.41
2022-08-11T01:50:38.548Z,96732.56
2022-08-11T01:53:14.202Z,96734.19
2022-08-11T01:55:55.171Z,96735.63
2022-08-11T01:58:43.571Z,96737.16
2022-08-11T02:01:25.573Z,96730.50
2022-08-11T02:03:58.338Z,96740.16
2022-08-11T02:06:46.943Z,96732.34
2022-08-11T02:09:21.920Z,96738.13
2022-08-11T02:11:50.779Z,96728.38
2022-08-11T02:14:25.971Z,96729.22
2022-08-11T02:17:01.723Z,96726.97
2022-08-11T02:19:57.318Z,96727.22
2022-08-11T02:22:50.021Z,96730.06
2022-08-11T02:25:25.767Z,96722.22
2022-08-11T02:28:00.789Z,96718.94
2022-08-11T02:30:33.741Z,96712.31
2022-08-11T02:33:24.885Z,96713.34
2022-08-11T02:36:00.261Z,96716.84
2022-08-11T02:38:33.733Z,96721.19
2022-08-11T02:41:30.504Z,96714.19
2022-08-11T02:44:25.682Z,96715.22
2022-08-11T02:47:04.121Z,96713.72
2022-08-11T02:50:02.507Z,96700.31
2022-08-11T02:52:45.478Z,96701.16
2022-08-11T02:55:48.924Z,96709.63
2022-08-11T02:58:15.959Z,96713.97
2022-08-11T03:00:48.769Z,96706.94
2022-08-11T03:03:22.258Z,96712.88
2022-08-11T03:05:57.818Z,96716.41
2022-08-11T03:08:42.199Z,96722.41
2022-08-11T03:11:34.023Z,96711.19
2022-08-11T03:14:31.647Z,96718.63
2022-08-11T03:17:05.754Z,96717.22
2022-08-11T03:19:46.857Z,96716.38
2022-08-11T03:22:22.095Z,96708.13
2022-08-11T03:25:02.542Z,96709.34
2022-08-11T03:27:40.686Z,96716.72
2022-08-11T03:30:14.104Z,96707.28
2022-08-11T03:33:11.339Z,96715.91
2022-08-11T03:35:43.138Z,96710.78
2022-08-11T03:38:14.353Z,96725.22
2022-08-11T03:42:01.319Z,96721.41
2022-08-11T03:44:08.036Z,96713.97
2022-08-11T03:46:45.336Z,96713.28
2022-08-11T03:49:26.851Z,96711.84
2022-08-11T03:51:58.486Z,96713.13
2022-08-11T03:54:32.964Z,96715.19
2022-08-11T03:57:43.548Z,96718.09
2022-08-11T04:00:23.405Z,96713.53
2022-08-11T04:03:21.176Z,96713.13
2022-08-11T04:06:15.042Z,96715.53
2022-08-11T04:09:15.108Z,96722.75
2022-08-11T04:12:06.550Z,96718.00
2022-08-11T04:15:02.080Z,96717.34
2022-08-11T04:17:52.532Z,96711.44
2022-08-11T04:20:33.699Z,96707.13
2022-08-11T04:24:36.797Z,96711.91
2022-08-11T04:27:37.195Z,96714.91
2022-08-11T04:30:12.187Z,96717.03
2022-08-11T04:33:17.807Z,96710.09
2022-08-11T04:35:55.088Z,96708.97
2022-08-11T04:38:54.550Z,96710.06
2022-08-11T04:42:01.095Z,96705.81
2022-08-11T04:45:11.962Z,96703.75
2022-08-11T04:48:17.405Z,96707.47
2022-08-11T04:51:17.784Z,96708.06
2022-08-11T04:54:10.933Z,96708.38
2022-08-11T04:56:58.959Z,96705.69
2022-08-11T05:00:10.158Z,96709.84
2022-08-11T05:03:15.750Z,96709.72
2022-08-11T05:06:09.021Z,96713.16
2022-08-11T05:09:02.446Z,96716.75
2022-08-11T05:12:03.674Z,96725.13
2022-08-11T05:14:52.432Z,96714.94
2022-08-11T05:17:56.682Z,96720.09
2022-08-11T05:20:44.637Z,96718.47
2022-08-11T05:23:31.861Z,96719.06
2022-08-11T05:26:46.877Z,96724.66
2022-08-11T05:29:46.435Z,96719.94
2022-08-11T05:32:34.558Z,96721.16
2022-08-11T05:35:05.222Z,96719.28
2022-08-11T05:37:38.112Z,96723.38
2022-08-11T05:40:30.713Z,96724.13
2022-08-11T05:43:19.210Z,96728.91
2022-08-11T05:46:15.036Z,96729.44
2022-08-11T05:49:01.996Z,96731.47
2022-08-11T05:51:55.311Z,96730.28
2022-08-11T05:54:42.318Z,96735.47
2022-08-11T05:57:48.807Z,96728.28
2022-08-11T06:00:10.391Z,96734.81
2022-08-11T06:02:41.556Z,96731.13
2022-08-11T06:05:10.570Z,96731.00
2022-08-11T06:07:49.220Z,96735.25
2022-08-11T06:10:31.023Z,96727.31
2022-08-11T06:13:02.060Z,96734.13
2022-08-11T06:15:32.874Z,96726.34
2022-08-11T06:18:02.930Z,96730.25
2022-08-11T06:20:36.567Z,96729.34
2022-08-11T06:23:07.399Z,96729.41
2022-08-11T06:25:37.337Z,96729.16
2022-08-11T06:28:08.537Z,96728.31
2022-08-11T06:30:40.724Z,96726.56
2022-08-11T06:33:11.106Z,96737.41
2022-08-11T06:35:40.577Z,96731.63
2022-08-11T06:38:11.993Z,96732.53
2022-08-11T06:41:08.314Z,96735.13
2022-08-11T06:43:55.374Z,96739.56
2022-08-11T06:46:28.636Z,96734.00
2022-08-11T06:48:57.176Z,96728.53
2022-08-11T06:51:24.811Z,96727.53
2022-08-11T06:54:04.575Z,96731.06
2022-08-11T06:57:18.635Z,96729.47
2022-08-11T07:00:02.428Z,96730.84
2022-08-11T07:02:34.554Z,96729.03
2022-08-11T07:05:08.354Z,96727.81
2022-08-11T07:08:35.787Z,96730.97
2022-08-11T07:11:41.430Z,96726.72
2022-08-11T07:14:27.396Z,96724.13
2022-08-11T07:16:57.585Z,96726.84
2022-08-11T07:19:47.022Z,96716.88
2022-08-11T07:22:33.766Z,96726.41
2022-08-11T07:25:21.246Z,96727.75
2022-08-11T07:28:10.606Z,96724.56
2022-08-11T07:30:41.881Z,96725.22
2022-08-11T07:34:05.731Z,96718.72
2022-08-11T07:36:05.135Z,96710.53
2022-08-11T07:38:47.428Z,96720.16
2022-08-11T07:41:17.733Z,96712.72
2022-08-11T07:43:49.196Z,96715.09
2022-08-11T07:46:36.056Z,96717.25
2022-08-11T07:49:26.176Z,96709.97
2022-08-11T07:52:12.638Z,96714.75
2022-08-11T07:54:41.991Z,96712.69
2022-08-11T07:58:14.667Z,96709.00
2022-08-11T08:00:37.382Z,96718.00
2022-08-11T08:03:24.496Z,96708.47
2022-08-11T08:06:15.362Z,96708.47
2022-08-11T08:09:17.573Z,96692.31
2022-08-11T08:12:03.861Z,96703.50
2022-08-11T08:14:50.618Z,96702.63
2022-08-11T08:17:37.274Z,96703.97
2022-08-11T08:20:07.888Z,96705.84
2022-08-11T08:22:39.748Z,96713.06
2022-08-11T08:25:10.602Z,96713.56
2022-08-11T08:27:39.453Z,96695.66
2022-08-11T08:30:26.291Z,96705.84
2022-08-11T08:32:57.670Z,96705.13
2022-08-11T08:35:30.654Z,96701.59
2022-08-11T08:38:02.305Z,96714.81
2022-08-11T08:40:31.031Z,96714.75
2022-08-11T08:43:05.118Z,96708.06
2022-08-11T08:45:37.735Z,96705.34
2022-08-11T08:48:10.333Z,96714.47
2022-08-11T08:51:01.785Z,96719.84
2022-08-11T08:53:35.245Z,96717.31
2022-08-11T08:56:04.461Z,96708.06
2022-08-11T08:58:34.721Z,96704.69
2022-08-11T09:01:02.845Z,96725.88
2022-08-11T09:04:07.108Z,96703.66
2022-08-11T09:06:20.651Z,96711.25
2022-08-11T09:08:53.652Z,96715.19
2022-08-11T09:11:41.581Z,96718.25
2022-08-11T09:14:14.942Z,96718.91
2022-08-11T09:16:44.290Z,96715.09
2022-08-11T09:19:17.675Z,96713.38
2022-08-11T09:22:08.386Z,96722.41
2022-08-11T09:24:56.390Z,96706.13
2022-08-11T09:27:25.299Z,96712.16
2022-08-11T09:29:54.205Z,96716.00
2022-08-11T09:32:23.220Z,96710.81
2022-08-11T09:34:54.089Z,96715.84
2022-08-11T09:37:54.069Z,96713.53
2022-08-11T09:40:32.375Z,96715.28
2022-08-11T09:43:21.663Z,96713.03
2022-08-11T09:45:51.898Z,96706.50
2022-08-11T09:48:20.845Z,96707.59
2022-08-11T09:50:52.631Z,96710.47
2022-08-11T09:53:36.642Z,96711.22
2022-08-11T09:56:30.128Z,96700.13
2022-08-11T09:58:59.506Z,96698.19
2022-08-11T10:01:31.705Z,96703.41
2022-08-11T10:04:02.895Z,96703.25
2022-08-11T10:06:54.502Z,96699.75
2022-08-11T10:09:25.675Z,96707.03
2022-08-11T10:11:57.929Z,96682.28
2022-08-11T10:14:45.270Z,96693.78
2022-08-11T10:17:14.930Z,96688.00
2022-08-11T10:20:01.958Z,96691.06
2022-08-11T10:22:52.936Z,96685.75
2022-08-11T10:25:39.315Z,96685.91
2022-08-11T10:28:32.973Z,96685.53
2022-08-11T10:31:16.973Z,96687.38
2022-08-11T10:34:01.915Z,96685.94
2022-08-11T10:36:31.820Z,96680.88
2022-08-11T10:39:01.710Z,96679.16
2022-08-11T10:42:06.804Z,96682.63
2022-08-11T10:44:40.141Z,96674.41
2022-08-11T10:47:26.687Z,96675.81
2022-08-11T10:50:09.626Z,96666.09
2022-08-11T10:52:56.408Z,96656.94
2022-08-11T10:55:42.912Z,96654.88
2022-08-11T10:58:29.275Z,96641.66
2022-08-11T11:01:00.695Z,96655.69
2022-08-11T11:03:32.174Z,96650.31
2022-08-11T11:06:28.728Z,96653.50
2022-08-11T11:09:03.762Z,96653.47
2022-08-11T11:11:54.092Z,96645.84
2022-08-11T11:14:46.161Z,96649.66
2022-08-11T11:17:44.190Z,96648.06
2022-08-11T11:20:35.806Z,96641.66
2022-08-11T11:23:06.429Z,96639.34
2022-08-11T11:25:40.380Z,96640.16
2022-08-11T11:28:34.617Z,96642.44
2022-08-11T11:31:15.784Z,96639.91
2022-08-11T11:34:12.186Z,96636.06
2022-08-11T11:36:47.059Z,96633.91
2022-08-11T11:39:19.309Z,96628.75
2022-08-11T11:41:48.453Z,96632.00
2022-08-11T11:44:17.103Z,96634.72
2022-08-11T11:46:46.673Z,96631.97
2022-08-11T11:49:18.606Z,96636.06
2022-08-11T11:51:50.279Z,96626.72
2022-08-11T11:54:19.076Z,96632.59
2022-08-11T11:56:47.440Z,96635.53
2022-08-11T11:59:34.005Z,96627.09
2022-08-11T12:02:11.841Z,96632.19
2022-08-11T12:04:45.188Z,96632.66
2022-08-11T12:07:30.998Z,96629.31
2022-08-11T12:09:59.706Z,96622.75
2022-08-11T12:12:45.492Z,96624.81
2022-08-11T12:15:13.935Z,96631.16
2022-08-11T12:17:42.305Z,96620.00
2022-08-11T12:20:31.954Z,96621.97
2022-08-11T12:23:16.507Z,96609.66
2022-08-11T12:26:26.431Z,96603.41
2022-08-11T12:28:51.895Z,96605.56
2022-08-11T12:31:25.982Z,96596.13
2022-08-11T12:33:56.154Z,96597.78
2022-08-11T12:36:25.656Z,96597.63
2022-08-11T12:38:55.090Z,96582.84
2022-08-11T12:41:42.067Z,96588.41
2022-08-11T12:44:28.620Z,96586.53
2022-08-11T12:46:58.998Z,96588.13
2022-08-11T12:49:47.366Z,96593.00
2022-08-11T12:52:21.658Z,96589.97
2022-08-11T12:54:58.954Z,96585.69
2022-08-11T12:57:49.655Z,96580.78
2022-08-11T13:00:36.446Z,96587.84
2022-08-11T13:03:24.519Z,96585.41
2022-08-11T13:05:55.713Z,96576.03
2022-08-11T13:08:26.677Z,96577.66
2022-08-11T13:11:15.124Z,96583.69
2022-08-11T13:13:54.066Z,96589.72
2022-08-11T13:16:27.789Z,96577.13
2022-08-11T13:18:56.904Z,96576.59
2022-08-11T13:21:25.519Z,96571.94
2022-08-11T13:24:01.691Z,96569.88
2022-08-11T13:26:46.645Z,96560.03
2022-08-11T13:29:20.625Z,96571.75
2022-08-11T13:31:49.600Z,96565.13
2022-08-11T13:34:18.485Z,96559.41
2022-08-11T13:36:50.053Z,96557.47
2022-08-11T13:39:19.579Z,96562.78
2022-08-11T13:41:49.671Z,96556.13
2022-08-11T13:44:24.734Z,96555.09
2022-08-11T13:46:55.278Z,96546.66
2022-08-11T13:49:24.056Z,96551.28
2022-08-11T13:51:52.844Z,96554.44
2022-08-11T13:54:24.662Z,96555.03
2022-08-11T13:56:55.349Z,96551.63
2022-08-11T13:59:29.869Z,96550.56
2022-08-11T14:02:22.052Z,96541.69
2022-08-11T14:04:55.445Z,96552.56
2022-08-11T14:07:25.884Z,96540.06
2022-08-11T14:09:58.958Z,96534.25
2022-08-11T14:12:46.663Z,96546.34
2022-08-11T14:15:19.993Z,96528.84
2022-08-11T14:17:52.254Z,96525.91
2022-08-11T14:20:38.296Z,96536.75
2022-08-11T14:23:11.021Z,96544.50
2022-08-11T14:26:03.759Z,96539.50
2022-08-11T14:28:40.298Z,96544.38
2022-08-11T14:31:14.711Z,96537.31
2022-08-11T14:34:00.409Z,96536.94
2022-08-11T14:36:34.022Z,96536.25
2022-08-11T14:39:05.425Z,96543.34
2022-08-11T14:42:10.151Z,96533.16
2022-08-11T14:45:00.889Z,96548.75
2022-08-11T14:47:29.470Z,96538.06
2022-08-11T14:50:10.253Z,96533.34
2022-08-11T14:52:45.743Z,96539.34
2022-08-11T14:55:32.068Z,96534.22
2022-08-11T14:58:02.448Z,96530.66
2022-08-11T15:00:31.572Z,96536.56
2022-08-11T15:03:12.080Z,96535.78
2022-08-11T15:05:52.333Z,96525.88
2022-08-11T15:08:46.642Z,96535.69
2022-08-11T15:11:34.193Z,96529.03
2022-08-11T15:14:06.494Z,96525.44
2022-08-11T15:16:52.793Z,96523.75
2022-08-11T15:19:22.099Z,96532.00
2022-08-11T15:22:08.123Z,96533.50
2022-08-11T15:24:37.363Z,96524.25
2022-08-11T15:27:24.792Z,96530.44
2022-08-11T15:30:20.935Z,96519.91
2022-08-11T15:33:20.618Z,96516.75
2022-08-11T15:36:06.495Z,96519.91
2022-08-11T15:38:37.082Z,96512.16
2022-08-11T15:41:23.936Z,96511.13
2022-08-11T15:44:12.039Z,96506.56
2022-08-11T15:46:43.850Z,96502.41
2022-08-11T15:49:13.755Z,96510.03
2022-08-11T15:51:54.399Z,96512.53
2022-08-11T15:54:27.216Z,96507.25
2022-08-11T15:56:57.478Z,96503.75
2022-08-11T15:59:44.348Z,96502.84
2022-08-11T16:02:34.041Z,96497.41
2022-08-11T16:05:05.288Z,96500.66
2022-08-11T16:07:36.932Z,96494.84
2022-08-11T16:10:14.813Z,96497.38
2022-08-11T16:13:18.132Z,96497.16
2022-08-11T16:16:06.518Z,96495.09
2022-08-11T16:18:43.018Z,96492.78
2022-08-11T16:21:34.219Z,96499.75
2022-08-11T16:24:06.139Z,96500.09
2022-08-11T16:27:10.281Z,96500.66
2022-08-11T16:29:28.160Z,96492.97
2022-08-11T16:32:15.040Z,96498.25
2022-08-11T16:35:03.586Z,96500.94
2022-08-11T16:37:52.102Z,96489.00
2022-08-11T16:40:22.688Z,96487.56
2022-08-11T16:43:11.561Z,96481.94
2022-08-11T16:45:58.882Z,96478.31
2022-08-11T16:48:34.961Z,96486.28
2022-08-11T16:51:08.295Z,96478.09
2022-08-11T16:53:54.854Z,96481.06
2022-08-11T16:56:33.933Z,96483.81
2022-08-11T16:59:17.285Z,96473.47
2022-08-11T17:01:53.011Z,96473.47
2022-08-11T17:04:46.208Z,96473.97
2022-08-11T17:07:41.690Z,96474.53
2022-08-11T17:10:51.555Z,96473.28
2022-08-11T17:13:26.851Z,96479.56
2022-08-11T17:16:12.209Z,96470.13
2022-08-11T17:18:51.624Z,96467.44
2022-08-11T17:21:21.829Z,96474.41
2022-08-11T17:23:55.069Z,96475.00
2022-08-11T17:26:28.050Z,96472.19
2022-08-11T17:29:00.573Z,96475.06
2022-08-11T17:31:47.660Z,96474.31
2022-08-11T17:34:34.086Z,96470.16
2022-08-11T17:37:02.882Z,96476.03
2022-08-11T17:39:33.036Z,96481.06
2022-08-11T17:42:19.682Z,96476.56
2022-08-11T17:45:06.737Z,96480.28
2022-08-11T17:47:53.063Z,96478.59
2022-08-11T17:50:22.452Z,96481.38
2022-08-11T17:53:08.971Z,96485.41
2022-08-11T17:55:58.197Z,96486.84
2022-08-11T17:58:44.662Z,96481.38
2022-08-11T18:01:13.808Z,96486.44
2022-08-11T18:03:41.827Z,96489.91
2022-08-11T18:06:22.520Z,96494.31
2022-08-11T18:09:23.934Z,96490.75
2022-08-11T18:12:13.150Z,96491.47
2022-08-11T18:15:01.081Z,96490.28
2022-08-11T18:17:47.874Z,96493.66
2022-08-11T18:20:33.796Z,96493.84
2022-08-11T18:23:46.546Z,96500.28
2022-08-11T18:26:28.816Z,96496.00
2022-08-11T18:29:16.358Z,96503.00
2022-08-11T18:32:07.037Z,96499.94
2022-08-11T18:34:56.567Z,96503.78
2022-08-11T18:37:44.712Z,96504.13
2022-08-11T18:40:35.158Z,96500.41
2022-08-11T18:43:27.183Z,96496.00
2022-08-11T18:46:18.489Z,96502.94
2022-08-11T18:49:10.647Z,96495.03
2022-08-11T18:52:00.209Z,96508.16
2022-08-11T18:54:48.861Z,96504.84
2022-08-11T18:57:49.887Z,96503.81
2022-08-11T19:00:41.492Z,96501.81
2022-08-11T19:03:30.377Z,96505.00
2022-08-11T19:06:38.417Z,96506.22
2022-08-11T19:09:27.427Z,96509.06
2022-08-11T19:12:13.945Z,96512.59
2022-08-11T19:15:00.434Z,96520.00
2022-08-11T19:17:46.887Z,96519.09
2022-08-11T19:20:36.815Z,96520.53
2022-08-11T19:23:25.151Z,96519.88
2022-08-11T19:26:12.020Z,96523.59
2022-08-11T19:28:58.660Z,96519.81
2022-08-11T19:31:45.810Z,96524.34
2022-08-11T19:34:32.711Z,96520.19
2022-08-11T19:37:24.427Z,96521.63
2022-08-11T19:40:11.910Z,96524.50
2022-08-11T19:42:59.327Z,96523.78
2022-08-11T19:45:50.352Z,96525.09
2022-08-11T19:48:39.284Z,96531.78
2022-08-11T19:51:25.340Z,96534.81
2022-08-11T19:54:13.148Z,96535.03
2022-08-11T19:57:00.530Z,96537.19
2022-08-11T19:59:47.203Z,96537.88
2022-08-11T20:02:33.134Z,96527.19
2022-08-11T20:05:19.004Z,96538.94
2022-08-11T20:08:04.976Z,96542.63
2022-08-11T20:10:53.678Z,96543.94
2022-08-11T20:13:41.683Z,96551.19
2022-08-11T20:16:30.152Z,96553.09
2022-08-11T20:19:16.687Z,96552.41
2022-08-11T20:22:07.916Z,96560.16
2022-08-11T20:24:55.248Z,96569.19
2022-08-11T20:27:44.131Z,96573.97
2022-08-11T20:30:31.370Z,96578.28
2022-08-11T20:33:17.518Z,96573.41
2022-08-11T20:36:04.662Z,96577.88
2022-08-11T20:38:51.738Z,96566.94
2022-08-11T20:41:58.967Z,96574.78
2022-08-11T20:44:45.994Z,96577.28
2022-08-11T20:47:32.970Z,96577.72
2022-08-11T20:50:41.013Z,96578.06
2022-08-11T20:53:27.675Z,96575.16
2022-08-11T20:56:14.124Z,96575.00
2022-08-11T20:59:14.386Z,96575.31
2022-08-11T21:02:10.012Z,96573.78
2022-08-11T21:04:57.855Z,96573.75
2022-08-11T21:07:55.187Z,96574.91
2022-08-11T21:10:46.785Z,96571.88
2022-08-11T21:13:33.386Z,96579.03
2022-08-11T21:16:25.639Z,96576.81
2022-08-11T21:19:18.262Z,96569.41
2022-08-11T21:22:05.971Z,96577.78
2022-08-11T21:24:53.079Z,96577.31
2022-08-11T21:27:39.403Z,96576.78
2022-08-11T21:30:26.520Z,96567.59
2022-08-11T21:33:13.790Z,96569.22
2022-08-11T21:36:02.613Z,96574.47
2022-08-11T21:38:49.432Z,96564.59
2022-08-11T21:41:35.883Z,96561.59
2022-08-11T21:44:22.845Z,96561.13
2022-08-11T21:47:09.061Z,96566.94
2022-08-11T21:49:55.630Z,96563.63
2022-08-11T21:52:43.339Z,96558.59
2022-08-11T21:55:29.648Z,96560.47
2022-08-11T21:58:16.274Z,96561.09
2022-08-11T22:01:02.837Z,96558.94
2022-08-11T22:03:50.349Z,96562.34
2022-08-11T22:06:36.878Z,96560.84
2022-08-11T22:09:24.134Z,96556.22
2022-08-11T22:12:34.207Z,96555.28
2022-08-11T22:15:15.710Z,96557.16
2022-08-11T22:18:02.227Z,96554.78
2022-08-11T22:20:48.654Z,96546.78
2022-08-11T22:23:37.033Z,96556.97
2022-08-11T22:26:25.018Z,96559.66
2022-08-11T22:29:10.995Z,96551.03
2022-08-11T22:31:57.778Z,96554.56
2022-08-11T22:34:44.796Z,96550.66
2022-08-11T22:37:39.689Z,96554.16
2022-08-11T22:40:27.723Z,96550.97
2022-08-11T22:43:15.399Z,96547.69
2022-08-11T22:46:01.428Z,96554.00
2022-08-11T22:48:48.889Z,96542.72
2022-08-11T22:51:37.005Z,96547.47
2022-08-11T22:54:23.908Z,96542.94
2022-08-11T22:57:09.860Z,96545.28
2022-08-11T22:59:57.683Z,96541.13
2022-08-11T23:02:44.595Z,96547.97
2022-08-11T23:05:32.483Z,96542.84
2022-08-11T23:08:18.906Z,96535.75
2022-08-11T23:11:05.369Z,96537.03
2022-08-11T23:13:52.246Z,96532.91
2022-08-11T23:16:40.113Z,96544.47
2022-08-11T23:19:59.968Z,96541.88
2022-08-11T23:22:43.841Z,96537.25
2022-08-11T23:25:35.438Z,96534.78
2022-08-11T23:28:21.958Z,96542.16
2022-08-11T23:31:08.884Z,96543.03
2022-08-11T23:33:59.317Z,96544.53
2022-08-11T23:36:47.733Z,96546.47
2022-08-11T23:39:34.597Z,96545.97
2022-08-11T23:42:20.610Z,96550.66
2022-08-11T23:45:09.545Z,96543.47
2022-08-11T23:47:57.209Z,96539.53
2022-08-11T23:50:45.324Z,96535.81
2022-08-11T23:53:32.277Z,96527.78
2022-08-11T23:56:21.716Z,96530.66
2022-08-11T23:59:08.411Z,96534.38
